Time;durP1;ratioP1;P1;durP2;ratioP2;P2;SDS_P1;SDS_P2;PMS_P1;PMS_P2;Temp;Humidity;BMP_temperature;BMP_pressure;BME280_temperature;BME280_humidity;BME280_pressure;Samples;Min_cycle;Max_cycle;Signal;HPM_P1;HPM_P2
2023/07/18 00:00:42;;;;;;;3.02;2.27;;;19.10;53.10;;;;;;957447;146;27392;-73
2023/07/18 00:03:09;;;;;;;2.30;2.10;;;19.00;53.30;;;;;;956698;146;27355;-73
2023/07/18 00:05:36;;;;;;;3.25;2.20;;;18.90;53.30;;;;;;957444;147;27416;-73
2023/07/18 00:08:01;;;;;;;2.62;1.85;;;18.80;53.60;;;;;;957839;147;27436;-73
2023/07/18 00:10:28;;;;;;;2.50;2.30;;;18.70;53.80;;;;;;956989;147;27334;-73
2023/07/18 00:12:54;;;;;;;2.20;2.00;;;18.60;54.00;;;;;;956925;147;27320;-73
2023/07/18 00:15:22;;;;;;;4.20;2.05;;;18.60;54.10;;;;;;957268;146;27346;-73
2023/07/18 00:17:48;;;;;;;2.83;1.92;;;18.50;54.20;;;;;;957197;147;27339;-73
2023/07/18 00:20:17;;;;;;;2.52;2.08;;;18.40;54.40;;;;;;956638;146;27353;-73
2023/07/18 00:22:48;;;;;;;2.55;1.98;;;18.30;54.60;;;;;;956118;146;27265;-73
2023/07/18 00:25:11;;;;;;;2.37;2.17;;;18.30;54.80;;;;;;955471;146;27500;-73
2023/07/18 00:27:38;;;;;;;2.52;2.33;;;18.20;55.00;;;;;;956957;147;27708;-73
2023/07/18 00:30:06;;;;;;;3.37;2.08;;;18.10;55.20;;;;;;957497;146;27281;-73
2023/07/18 00:32:30;;;;;;;3.62;2.20;;;18.00;55.30;;;;;;956903;146;27306;-73
2023/07/18 00:34:56;;;;;;;4.25;2.30;;;18.00;55.40;;;;;;957511;146;27424;-73
2023/07/18 00:37:23;;;;;;;2.35;1.95;;;17.90;55.60;;;;;;956684;146;27423;-73
2023/07/18 00:39:50;;;;;;;2.67;2.33;;;17.90;55.80;;;;;;957371;147;27348;-74
2023/07/18 00:42:16;;;;;;;3.00;2.15;;;17.80;56.00;;;;;;957421;146;27401;-73
2023/07/18 00:44:43;;;;;;;3.75;2.58;;;17.70;56.10;;;;;;958090;146;27372;-73
2023/07/18 00:47:09;;;;;;;2.92;2.25;;;17.70;56.20;;;;;;958197;147;27315;-73
2023/07/18 00:49:36;;;;;;;3.20;2.57;;;17.60;56.30;;;;;;958108;147;27336;-73
2023/07/18 00:52:04;;;;;;;2.37;2.17;;;17.60;56.50;;;;;;957715;147;27318;-73
2023/07/18 00:54:29;;;;;;;2.70;2.05;;;17.50;56.70;;;;;;957786;146;27311;-73
2023/07/18 00:56:56;;;;;;;2.67;2.22;;;17.40;56.80;;;;;;955158;147;27445;-73
2023/07/18 00:59:22;;;;;;;2.80;2.30;;;17.40;57.00;;;;;;952271;149;27355;-73
2023/07/18 01:01:49;;;;;;;2.43;2.23;;;17.30;57.00;;;;;;952111;148;27491;-73
2023/07/18 01:04:18;;;;;;;2.43;2.23;;;17.30;57.30;;;;;;952427;147;27346;-73
2023/07/18 01:06:42;;;;;;;4.85;2.70;;;17.20;57.40;;;;;;952202;147;27421;-73
2023/07/18 01:09:09;;;;;;;2.55;2.35;;;17.20;57.40;;;;;;952510;147;27334;-73
2023/07/18 01:11:35;;;;;;;3.02;2.67;;;17.10;57.60;;;;;;952341;147;27368;-73
2023/07/18 01:14:03;;;;;;;3.30;2.93;;;17.10;57.70;;;;;;952594;148;27295;-73
2023/07/18 01:16:28;;;;;;;2.50;2.30;;;17.10;58.00;;;;;;953153;148;27293;-73
2023/07/18 01:18:55;;;;;;;2.67;2.17;;;17.00;58.00;;;;;;953078;148;27348;-73
2023/07/18 01:21:22;;;;;;;3.62;2.30;;;17.00;58.20;;;;;;952097;147;27352;-73
2023/07/18 01:23:48;;;;;;;2.87;2.45;;;16.90;58.40;;;;;;952104;147;27327;-73
2023/07/18 01:26:15;;;;;;;2.33;2.00;;;16.90;58.50;;;;;;953022;148;27309;-73
2023/07/18 01:28:41;;;;;;;4.53;2.65;;;16.80;58.60;;;;;;951013;147;27351;-73
2023/07/18 01:31:08;;;;;;;3.67;2.62;;;16.80;58.80;;;;;;950484;147;27365;-73
2023/07/18 01:33:35;;;;;;;3.67;2.58;;;16.70;58.80;;;;;;950523;147;27344;-73
2023/07/18 01:36:02;;;;;;;3.00;2.70;;;16.70;59.00;;;;;;935196;149;27341;-73
2023/07/18 01:38:30;;;;;;;2.47;2.27;;;16.60;59.00;;;;;;933543;150;27367;-73
2023/07/18 01:40:54;;;;;;;2.60;2.20;;;16.60;59.10;;;;;;949592;147;27320;-73
2023/07/18 01:43:22;;;;;;;8.03;2.80;;;16.60;59.20;;;;;;950383;147;27341;-73
2023/07/18 01:45:47;;;;;;;3.30;2.70;;;16.50;59.30;;;;;;932038;149;27466;-73
2023/07/18 01:48:14;;;;;;;6.00;2.60;;;16.40;59.50;;;;;;951347;147;27241;-73
2023/07/18 01:50:43;;;;;;;2.50;2.30;;;16.40;59.60;;;;;;950392;147;27332;-73
2023/07/18 01:53:13;;;;;;;2.80;2.40;;;16.30;59.70;;;;;;926500;150;27369;-73
2023/07/18 01:55:37;;;;;;;2.80;2.60;;;16.30;59.80;;;;;;947939;148;27360;-73
2023/07/18 01:58:03;;;;;;;7.20;3.30;;;16.20;60.00;;;;;;946409;148;27407;-73
2023/07/18 02:00:30;;;;;;;3.63;2.53;;;16.20;60.10;;;;;;946238;151;27360;-73
2023/07/18 02:02:57;;;;;;;3.23;2.40;;;16.10;60.30;;;;;;946848;148;27325;-73
2023/07/18 02:05:23;;;;;;;4.13;2.60;;;16.10;60.40;;;;;;936879;150;27467;-73
2023/07/18 02:07:50;;;;;;;2.77;2.43;;;16.10;60.60;;;;;;937162;150;27404;-73
2023/07/18 02:10:19;;;;;;;2.80;2.43;;;16.00;60.80;;;;;;946763;149;27288;-73
2023/07/18 02:12:43;;;;;;;2.53;2.33;;;16.00;61.00;;;;;;946152;148;27348;-73
2023/07/18 02:15:10;;;;;;;4.90;2.77;;;15.90;61.00;;;;;;946700;149;27445;-73
2023/07/18 02:17:36;;;;;;;2.60;2.40;;;15.90;61.20;;;;;;947166;148;27449;-73
2023/07/18 02:20:05;;;;;;;3.23;2.37;;;15.90;61.40;;;;;;946794;149;27363;-73
2023/07/18 02:22:29;;;;;;;3.30;2.50;;;15.80;61.60;;;;;;946004;149;27365;-73
2023/07/18 02:24:56;;;;;;;2.80;2.43;;;15.80;61.70;;;;;;947412;148;27446;-73
2023/07/18 02:27:22;;;;;;;2.57;2.30;;;15.80;61.80;;;;;;947020;149;27364;-73
2023/07/18 02:29:49;;;;;;;2.63;2.43;;;15.70;61.90;;;;;;946606;149;27738;-73
2023/07/18 02:32:17;;;;;;;3.77;2.60;;;15.70;62.00;;;;;;946548;149;27842;-73
2023/07/18 02:34:42;;;;;;;3.53;3.00;;;15.70;62.10;;;;;;946655;148;27305;-73
2023/07/18 02:37:09;;;;;;;3.13;2.40;;;15.70;62.20;;;;;;947075;149;27386;-73
2023/07/18 02:39:35;;;;;;;3.40;3.10;;;15.60;62.20;;;;;;946676;148;27445;-73
2023/07/18 02:42:02;;;;;;;4.13;2.90;;;15.60;62.30;;;;;;946519;148;27340;-73
2023/07/18 02:44:29;;;;;;;2.47;2.27;;;15.60;62.50;;;;;;945842;148;27344;-73
2023/07/18 02:46:55;;;;;;;4.50;2.57;;;15.60;62.70;;;;;;946102;148;27381;-73
2023/07/18 02:49:22;;;;;;;3.60;2.70;;;15.60;62.80;;;;;;945962;148;27382;-73
2023/07/18 02:51:48;;;;;;;3.27;2.70;;;15.50;62.90;;;;;;946189;148;27281;-73
2023/07/18 02:54:15;;;;;;;3.33;2.53;;;15.50;62.90;;;;;;946560;148;27413;-73
2023/07/18 02:56:41;;;;;;;3.97;2.60;;;15.50;63.10;;;;;;946398;148;27356;-73
2023/07/18 02:59:08;;;;;;;2.80;2.53;;;15.40;63.20;;;;;;942876;148;27416;-76
2023/07/18 03:01:35;;;;;;;2.60;2.40;;;15.40;63.40;;;;;;942625;148;27379;-70
2023/07/18 03:04:01;;;;;;;11.43;3.47;;;15.30;63.50;;;;;;942810;148;27361;-71
2023/07/18 03:06:28;;;;;;;3.73;2.70;;;15.30;63.60;;;;;;941747;148;27346;-71
2023/07/18 03:08:54;;;;;;;2.87;2.57;;;15.20;63.70;;;;;;942508;148;27329;-71
2023/07/18 03:11:21;;;;;;;4.17;2.63;;;15.20;63.90;;;;;;943401;148;27381;-71
2023/07/18 03:13:48;;;;;;;3.80;3.00;;;15.20;64.00;;;;;;943033;148;27470;-71
2023/07/18 03:16:14;;;;;;;3.40;3.10;;;15.10;64.10;;;;;;942801;148;27377;-70
2023/07/18 03:18:41;;;;;;;2.83;2.53;;;15.10;64.30;;;;;;942814;148;27365;-70
2023/07/18 03:21:07;;;;;;;3.57;2.90;;;15.10;64.60;;;;;;943189;148;27408;-71
2023/07/18 03:23:34;;;;;;;2.80;2.60;;;15.00;64.60;;;;;;942675;148;27369;-70
2023/07/18 03:26:01;;;;;;;3.07;2.77;;;15.00;64.70;;;;;;943409;148;27345;-71
2023/07/18 03:28:27;;;;;;;2.63;2.23;;;14.90;64.80;;;;;;943023;148;27412;-71
2023/07/18 03:30:54;;;;;;;3.03;2.43;;;14.90;65.00;;;;;;944111;148;27848;-70
2023/07/18 03:33:21;;;;;;;2.73;2.40;;;14.90;65.20;;;;;;943052;148;27397;-71
2023/07/18 03:35:47;;;;;;;2.90;2.70;;;14.80;65.30;;;;;;942331;148;27350;-71
2023/07/18 03:38:13;;;;;;;2.73;2.47;;;14.80;65.30;;;;;;942772;148;27379;-71
2023/07/18 03:40:40;;;;;;;3.23;2.93;;;14.80;65.50;;;;;;942730;148;27409;-71
2023/07/18 03:43:07;;;;;;;2.50;2.30;;;14.80;65.70;;;;;;943258;148;27377;-70
2023/07/18 03:45:33;;;;;;;3.53;2.97;;;14.80;65.90;;;;;;942976;148;27333;-71
2023/07/18 03:48:00;;;;;;;2.70;2.47;;;14.70;66.00;;;;;;942740;148;27329;-70
2023/07/18 03:50:26;;;;;;;2.90;2.60;;;14.70;66.30;;;;;;943218;148;27426;-71
2023/07/18 03:52:53;;;;;;;3.13;2.83;;;14.70;66.40;;;;;;942998;148;27449;-70
2023/07/18 03:55:20;;;;;;;2.90;2.60;;;14.70;66.60;;;;;;942374;148;27462;-71
2023/07/18 03:57:46;;;;;;;2.83;2.40;;;14.80;66.80;;;;;;942975;148;27693;-71
2023/07/18 04:00:13;;;;;;;2.90;2.43;;;14.80;66.80;;;;;;942752;148;27342;-71
2023/07/18 04:02:39;;;;;;;3.70;2.60;;;14.80;67.00;;;;;;943156;148;27346;-71
2023/07/18 04:05:06;;;;;;;3.13;2.73;;;14.80;67.10;;;;;;950063;147;27703;-71
2023/07/18 04:07:33;;;;;;;2.80;2.60;;;14.80;67.10;;;;;;950146;147;27772;-71
2023/07/18 04:09:59;;;;;;;4.03;2.80;;;14.90;67.30;;;;;;950704;147;27328;-71
2023/07/18 04:12:26;;;;;;;6.93;2.67;;;14.90;68.20;;;;;;949103;146;27404;-71
2023/07/18 04:14:52;;;;;;;4.37;2.70;;;15.00;67.50;;;;;;931835;149;27378;-71
2023/07/18 04:17:19;;;;;;;2.70;2.50;;;15.00;67.50;;;;;;945428;149;27376;-71
2023/07/18 04:19:45;;;;;;;2.60;2.40;;;15.10;67.50;;;;;;945701;149;27376;-70
2023/07/18 04:22:12;;;;;;;3.10;2.80;;;15.10;67.50;;;;;;945689;149;27304;-71
2023/07/18 04:24:39;;;;;;;3.67;2.63;;;15.20;67.60;;;;;;945977;149;27392;-71
2023/07/18 04:27:06;;;;;;;3.53;3.17;;;15.30;67.60;;;;;;945914;149;27470;-71
2023/07/18 04:29:32;;;;;;;3.33;2.73;;;15.30;67.60;;;;;;945597;149;27356;-71
2023/07/18 04:31:59;;;;;;;4.67;2.70;;;15.40;68.40;;;;;;946205;149;27345;-71
2023/07/18 04:34:25;;;;;;;3.27;2.97;;;15.50;67.60;;;;;;945863;149;27377;-71
2023/07/18 04:36:52;;;;;;;3.33;2.90;;;15.60;68.40;;;;;;945923;149;27372;-71
2023/07/18 04:39:19;;;;;;;3.37;2.77;;;15.70;67.60;;;;;;945768;149;27458;-71
2023/07/18 04:41:45;;;;;;;4.55;2.95;;;15.80;67.70;;;;;;945241;149;27430;-71
2023/07/18 04:44:11;;;;;;;5.17;3.25;;;15.80;67.70;;;;;;945701;149;27341;-71
2023/07/18 04:46:38;;;;;;;4.00;3.05;;;15.90;67.80;;;;;;945371;149;27274;-71
2023/07/18 04:49:05;;;;;;;2.83;2.57;;;16.00;67.60;;;;;;946005;149;27466;-71
2023/07/18 04:51:31;;;;;;;5.00;2.83;;;16.10;67.80;;;;;;945736;149;27348;-76
2023/07/18 04:53:58;;;;;;;3.30;2.73;;;16.20;67.80;;;;;;945583;149;27358;-76
2023/07/18 04:56:24;;;;;;;3.67;3.02;;;16.30;67.90;;;;;;945743;149;27466;-76
2023/07/18 04:58:51;;;;;;;4.47;3.37;;;16.40;67.90;;;;;;944466;149;27421;-75
2023/07/18 05:01:17;;;;;;;3.47;2.67;;;16.50;68.00;;;;;;937786;150;27451;-76
2023/07/18 05:03:44;;;;;;;3.02;2.67;;;16.70;68.20;;;;;;953874;147;27397;-76
2023/07/18 05:06:11;;;;;;;3.58;2.92;;;16.90;68.40;;;;;;949478;148;27412;-76
2023/07/18 05:08:38;;;;;;;4.20;2.65;;;17.10;68.80;;;;;;937227;150;27419;-76
2023/07/18 05:11:04;;;;;;;3.55;3.10;;;17.50;69.40;;;;;;954474;147;27351;-76
2023/07/18 05:13:30;;;;;;;2.62;2.40;;;17.90;70.10;;;;;;946737;148;27233;-76
2023/07/18 05:16:03;;;;;;;3.15;2.85;;;18.50;70.50;;;;;;946883;148;27428;-76
2023/07/18 05:18:29;;;;;;;3.10;2.80;;;19.20;70.60;;;;;;946400;148;27449;-76
2023/07/18 05:20:59;;;;;;;3.02;2.22;;;20.00;70.30;;;;;;946975;148;27424;-76
2023/07/18 05:23:25;;;;;;;3.33;2.00;;;20.90;69.30;;;;;;946996;148;27411;-76
2023/07/18 05:25:52;;;;;;;3.30;2.40;;;21.80;68.00;;;;;;946533;148;27322;-76
2023/07/18 05:28:18;;;;;;;3.70;2.47;;;22.70;66.50;;;;;;946838;149;27336;-76
2023/07/18 05:30:45;;;;;;;3.87;2.33;;;23.50;65.00;;;;;;947232;150;27357;-76
2023/07/18 05:33:12;;;;;;;3.02;2.27;;;24.40;63.50;;;;;;946793;149;27454;-76
2023/07/18 05:35:38;;;;;;;3.22;1.87;;;25.20;61.70;;;;;;946553;148;27289;-76
2023/07/18 05:38:05;;;;;;;2.50;2.30;;;25.90;60.00;;;;;;946372;148;27802;-76
2023/07/18 05:40:31;;;;;;;2.75;2.20;;;26.70;59.10;;;;;;945827;148;27435;-76
2023/07/18 05:42:58;;;;;;;2.25;2.05;;;27.30;58.10;;;;;;946482;148;27445;-76
2023/07/18 05:45:25;;;;;;;4.40;2.30;;;28.00;57.20;;;;;;946535;148;27462;-76
2023/07/18 05:47:51;;;;;;;2.37;2.08;;;28.70;56.30;;;;;;946588;148;27402;-76
2023/07/18 05:50:18;;;;;;;4.20;2.70;;;29.30;55.40;;;;;;946591;148;27333;-76
2023/07/18 05:52:44;;;;;;;2.55;2.20;;;30.00;54.40;;;;;;946401;148;27353;-77
2023/07/18 05:55:13;;;;;;;3.22;2.35;;;30.60;53.30;;;;;;946276;148;27785;-76
2023/07/18 05:57:38;;;;;;;2.55;2.35;;;31.20;52.60;;;;;;945291;149;27424;-76
2023/07/18 06:00:07;;;;;;;4.22;2.10;;;31.70;51.60;;;;;;947570;147;27342;-76
2023/07/18 06:02:31;;;;;;;2.72;2.45;;;32.30;50.70;;;;;;947736;147;27372;-76
2023/07/18 06:04:57;;;;;;;2.90;2.17;;;32.90;50.00;;;;;;948822;147;26268;-76
2023/07/18 06:07:24;;;;;;;2.45;2.25;;;33.50;49.10;;;;;;949712;147;27360;-76
2023/07/18 06:09:53;;;;;;;2.55;2.35;;;34.00;48.20;;;;;;949604;147;26240;-76
2023/07/18 06:12:20;;;;;;;2.52;2.20;;;34.50;47.20;;;;;;948632;147;26424;-76
2023/07/18 06:14:46;;;;;;;3.27;2.37;;;35.00;46.40;;;;;;949145;147;26287;-76
2023/07/18 06:17:13;;;;;;;2.25;2.02;;;35.40;45.60;;;;;;949816;147;26350;-76
2023/07/18 06:19:40;;;;;;;2.70;2.40;;;35.80;45.20;;;;;;949963;147;26251;-76
2023/07/18 06:22:06;;;;;;;2.62;2.42;;;36.20;44.60;;;;;;949311;148;26325;-76
2023/07/18 06:24:33;;;;;;;2.40;2.20;;;36.60;43.90;;;;;;949975;147;26255;-76
2023/07/18 06:26:59;;;;;;;3.33;2.50;;;37.10;43.40;;;;;;950277;147;27719;-76
2023/07/18 06:29:26;;;;;;;3.87;2.58;;;37.40;42.60;;;;;;948888;147;26316;-76
2023/07/18 06:31:56;;;;;;;3.08;2.10;;;37.80;42.30;;;;;;949272;147;26189;-76
2023/07/18 06:34:19;;;;;;;4.05;2.40;;;38.20;41.80;;;;;;948685;147;26327;-76
2023/07/18 06:36:46;;;;;;;2.77;2.58;;;38.60;41.10;;;;;;950029;147;26288;-76
2023/07/18 06:39:13;;;;;;;2.55;2.35;;;39.00;40.30;;;;;;949078;147;26221;-76
2023/07/18 06:41:39;;;;;;;3.15;2.58;;;39.40;39.80;;;;;;948913;147;26224;-76
2023/07/18 06:44:07;;;;;;;2.80;2.60;;;39.80;39.40;;;;;;949557;147;26256;-76
2023/07/18 06:46:32;;;;;;;4.92;2.20;;;40.20;38.70;;;;;;949261;147;26352;-76
2023/07/18 06:48:59;;;;;;;2.30;1.70;;;40.50;37.90;;;;;;949141;147;26951;-76
2023/07/18 06:51:25;;;;;;;2.87;1.65;;;40.90;37.10;;;;;;950012;147;26177;-76
2023/07/18 06:53:52;;;;;;;3.33;1.90;;;41.20;36.30;;;;;;949749;147;26246;-76
2023/07/18 06:56:18;;;;;;;4.15;1.72;;;41.50;35.80;;;;;;948734;147;26267;-77
2023/07/18 06:58:45;;;;;;;2.90;2.12;;;41.60;35.30;;;;;;949756;147;26264;-71
2023/07/18 07:01:12;;;;;;;4.80;2.08;;;41.90;35.00;;;;;;946003;147;26367;-72
2023/07/18 07:03:38;;;;;;;1.75;1.65;;;42.10;34.40;;;;;;946319;149;26273;-72
2023/07/18 07:06:11;;;;;;;1.87;1.70;;;42.40;33.90;;;;;;946889;148;26249;-71
2023/07/18 07:08:38;;;;;;;2.35;1.87;;;42.70;33.40;;;;;;946327;149;26365;-72
2023/07/18 07:11:07;;;;;;;2.58;1.62;;;42.90;32.90;;;;;;946621;148;26283;-72
2023/07/18 07:13:36;;;;;;;1.50;1.40;;;43.10;32.50;;;;;;946281;149;26276;-71
2023/07/18 07:16:03;;;;;;;1.55;1.45;;;43.30;32.00;;;;;;946827;149;26364;-71
2023/07/18 07:18:29;;;;;;;1.82;1.52;;;43.50;31.60;;;;;;945720;148;26377;-71
2023/07/18 07:20:56;;;;;;;1.55;1.45;;;43.70;31.30;;;;;;946167;149;26243;-72
2023/07/18 07:23:22;;;;;;;2.52;1.35;;;43.90;30.80;;;;;;946309;149;26264;-72
2023/07/18 07:25:49;;;;;;;2.50;1.70;;;44.10;30.30;;;;;;946626;148;26328;-71
2023/07/18 07:28:16;;;;;;;2.35;1.37;;;44.20;30.00;;;;;;947073;149;26280;-72
2023/07/18 07:30:42;;;;;;;1.95;1.77;;;44.40;29.70;;;;;;945677;148;26292;-72
2023/07/18 07:33:09;;;;;;;1.52;1.42;;;44.60;29.70;;;;;;946437;148;26260;-71
2023/07/18 07:35:35;;;;;;;2.65;1.92;;;44.70;29.40;;;;;;946575;148;26759;-71
2023/07/18 07:38:02;;;;;;;1.50;1.40;;;44.80;29.20;;;;;;946584;148;26271;-71
2023/07/18 07:40:29;;;;;;;1.72;1.62;;;44.90;29.00;;;;;;947002;148;26280;-71
2023/07/18 07:42:55;;;;;;;1.65;1.52;;;45.10;28.70;;;;;;946101;148;26264;-71
2023/07/18 07:45:22;;;;;;;1.47;1.35;;;45.20;28.50;;;;;;946448;148;26260;-72
2023/07/18 07:47:48;;;;;;;1.90;1.47;;;45.40;28.10;;;;;;946995;149;26340;-71
2023/07/18 07:50:15;;;;;;;2.72;1.70;;;45.40;27.70;;;;;;946728;151;26374;-71
2023/07/18 07:52:42;;;;;;;1.57;1.40;;;45.40;27.60;;;;;;946820;149;26292;-71
2023/07/18 07:55:08;;;;;;;1.80;1.35;;;45.50;27.50;;;;;;946315;149;26239;-71
2023/07/18 07:57:35;;;;;;;3.92;1.60;;;45.50;27.50;;;;;;946511;149;26342;-71
2023/07/18 08:00:01;;;;;;;1.87;1.52;;;45.60;27.30;;;;;;946750;148;26349;-71
2023/07/18 08:02:28;;;;;;;1.98;1.75;;;45.70;27.00;;;;;;946958;149;26308;-71
2023/07/18 08:04:54;;;;;;;3.20;1.40;;;45.80;27.00;;;;;;946495;148;26248;-71
2023/07/18 08:07:21;;;;;;;1.87;1.40;;;45.90;26.80;;;;;;946906;149;26245;-72
2023/07/18 08:09:49;;;;;;;2.20;1.30;;;46.00;26.50;;;;;;947114;149;26181;-71
2023/07/18 08:12:14;;;;;;;2.75;1.42;;;46.00;26.50;;;;;;946718;148;26664;-71
2023/07/18 08:14:42;;;;;;;2.47;1.70;;;46.10;26.40;;;;;;947113;149;26241;-72
2023/07/18 08:17:07;;;;;;;1.60;1.50;;;46.10;26.20;;;;;;946703;151;26263;-71
2023/07/18 08:19:34;;;;;;;1.42;1.32;;;46.10;26.10;;;;;;946989;149;26240;-71
2023/07/18 08:22:01;;;;;;;4.40;1.80;;;46.10;26.20;;;;;;947197;149;26264;-71
2023/07/18 08:24:27;;;;;;;1.50;1.40;;;46.20;26.10;;;;;;945328;148;26370;-71
2023/07/18 08:26:54;;;;;;;1.50;1.40;;;46.30;26.00;;;;;;947242;149;26351;-71
2023/07/18 08:29:20;;;;;;;1.50;1.30;;;46.60;25.90;;;;;;946422;148;26255;-71
2023/07/18 08:31:48;;;;;;;3.37;1.40;;;46.80;25.60;;;;;;946899;149;26248;-71
2023/07/18 08:34:14;;;;;;;1.87;1.70;;;47.00;25.50;;;;;;946803;148;26400;-71
2023/07/18 08:36:40;;;;;;;1.67;1.47;;;47.20;25.30;;;;;;946900;149;26250;-71
2023/07/18 08:39:07;;;;;;;1.40;1.30;;;47.40;25.10;;;;;;946877;149;26243;-71
2023/07/18 08:41:34;;;;;;;4.92;1.65;;;47.60;24.80;;;;;;946286;149;26266;-72
2023/07/18 08:44:00;;;;;;;1.95;1.42;;;47.60;24.70;;;;;;946625;148;26275;-71
2023/07/18 08:46:26;;;;;;;1.62;1.52;;;47.70;24.40;;;;;;946779;148;26192;-71
2023/07/18 08:48:53;;;;;;;1.47;1.37;;;47.70;24.30;;;;;;946755;149;26248;-71
2023/07/18 08:51:21;;;;;;;2.20;1.42;;;47.80;24.30;;;;;;946601;149;26265;-71
2023/07/18 08:53:46;;;;;;;1.37;1.30;;;47.80;24.10;;;;;;946929;149;26334;-71
2023/07/18 08:56:13;;;;;;;1.57;1.47;;;47.90;24.20;;;;;;946598;149;26276;-71
2023/07/18 08:58:39;;;;;;;1.32;1.22;;;48.00;24.10;;;;;;946801;149;26244;-71
2023/07/18 09:01:09;;;;;;;1.50;1.40;;;48.20;23.90;;;;;;946716;149;26374;-71
2023/07/18 09:03:33;;;;;;;1.40;1.30;;;48.20;23.80;;;;;;945601;148;26298;-71
2023/07/18 09:06:02;;;;;;;3.27;1.37;;;48.40;23.70;;;;;;954392;148;26343;-71
2023/07/18 09:08:29;;;;;;;1.57;1.47;;;48.50;23.60;;;;;;950880;148;26247;-71
2023/07/18 09:11:04;;;;;;;2.70;1.57;;;48.60;23.40;;;;;;934187;151;26209;-71
2023/07/18 09:13:36;;;;;;;1.95;1.40;;;48.60;23.30;;;;;;954662;148;26336;-71
2023/07/18 09:16:03;;;;;;;1.55;1.27;;;48.70;23.20;;;;;;954565;148;26190;-71
2023/07/18 09:18:30;;;;;;;1.75;1.30;;;48.80;23.10;;;;;;952064;150;26347;-71
2023/07/18 09:20:56;;;;;;;1.17;1.12;;;48.80;22.90;;;;;;936920;150;26299;-71
2023/07/18 09:23:23;;;;;;;1.47;1.22;;;48.90;22.90;;;;;;954659;148;26337;-71
2023/07/18 09:25:49;;;;;;;1.72;1.30;;;48.90;22.80;;;;;;937280;151;26362;-71
2023/07/18 09:28:16;;;;;;;1.52;1.00;;;48.90;22.70;;;;;;954391;148;26261;-71
2023/07/18 09:30:42;;;;;;;1.25;1.12;;;49.00;22.60;;;;;;954469;147;26348;-71
2023/07/18 09:33:09;;;;;;;1.37;1.27;;;49.10;22.40;;;;;;950730;150;26243;-71
2023/07/18 09:35:36;;;;;;;1.87;1.40;;;49.20;22.10;;;;;;954288;147;26287;-71
2023/07/18 09:38:02;;;;;;;1.22;1.10;;;49.20;21.80;;;;;;927552;151;26302;-71
2023/07/18 09:40:29;;;;;;;1.57;1.47;;;49.20;21.70;;;;;;954566;148;26209;-71
2023/07/18 09:42:55;;;;;;;1.60;1.12;;;49.00;21.50;;;;;;954295;148;26216;-71
2023/07/18 09:45:22;;;;;;;1.27;1.20;;;48.90;21.50;;;;;;937285;150;26348;-71
2023/07/18 09:47:49;;;;;;;1.40;1.30;;;48.70;21.60;;;;;;954374;147;26259;-71
2023/07/18 09:50:15;;;;;;;1.60;1.42;;;48.60;21.70;;;;;;954128;147;26281;-71
2023/07/18 09:52:42;;;;;;;1.75;1.40;;;48.40;21.70;;;;;;954222;148;26292;-72
2023/07/18 09:55:10;;;;;;;1.45;1.30;;;48.30;21.70;;;;;;953511;148;26216;-71
2023/07/18 09:57:35;;;;;;;1.42;1.32;;;48.20;21.70;;;;;;953916;148;26357;-72
2023/07/18 10:00:02;;;;;;;1.35;1.30;;;47.90;21.60;;;;;;945868;148;26223;-72
2023/07/18 10:02:28;;;;;;;2.35;1.30;;;47.80;21.60;;;;;;936730;150;26238;-71
2023/07/18 10:04:55;;;;;;;1.30;1.20;;;47.70;21.60;;;;;;951607;147;26319;-71
2023/07/18 10:07:21;;;;;;;2.42;1.12;;;47.40;21.50;;;;;;950429;147;26762;-71
2023/07/18 10:09:48;;;;;;;1.32;1.22;;;47.10;21.40;;;;;;950879;147;26330;-71
2023/07/18 10:12:14;;;;;;;2.02;1.40;;;46.70;21.40;;;;;;926542;150;26321;-71
2023/07/18 10:14:47;;;;;;;2.70;2.02;;;46.10;21.50;;;;;;941432;149;26268;-74
2023/07/18 10:17:41;;;;;;;2.22;1.85;;;45.50;21.60;;;;;;932125;150;26318;-78
2023/07/18 10:20:10;;;;;;;1.60;1.40;;;45.00;21.70;;;;;;924755;150;26355;-78
2023/07/18 10:22:38;;;;;;;2.08;1.35;;;44.40;21.80;;;;;;931390;149;26394;-78
2023/07/18 10:25:06;;;;;;;1.47;1.35;;;43.90;21.90;;;;;;950527;147;26206;-78
2023/07/18 10:27:38;;;;;;;1.95;1.67;;;43.50;22.20;;;;;;949585;147;26162;-78
2023/07/18 10:30:15;;;;;;;1.80;1.70;;;43.10;22.40;;;;;;950587;147;26751;-79
2023/07/18 10:32:42;;;;;;;1.80;1.62;;;42.70;22.40;;;;;;948086;146;26232;-78
2023/07/18 10:35:07;;;;;;;2.22;1.47;;;42.20;22.90;;;;;;932322;150;26406;-78
2023/07/18 10:37:33;;;;;;;2.22;1.72;;;41.80;22.70;;;;;;950096;147;26615;-78
2023/07/18 10:40:04;;;;;;;2.25;1.67;;;41.40;22.80;;;;;;948727;147;26374;-78
2023/07/18 10:42:29;;;;;;;2.10;1.70;;;41.00;22.90;;;;;;930370;149;26226;-78
2023/07/18 10:44:56;;;;;;;1.47;1.37;;;40.50;23.30;;;;;;934014;149;26251;-78
2023/07/18 10:47:23;;;;;;;2.80;1.67;;;40.10;23.50;;;;;;947614;147;26224;-78
2023/07/18 10:49:49;;;;;;;1.45;1.35;;;39.70;23.80;;;;;;950065;147;27349;-78
2023/07/18 10:52:16;;;;;;;1.47;1.37;;;39.30;23.90;;;;;;950180;147;26234;-78
2023/07/18 10:54:51;;;;;;;2.27;1.40;;;39.10;24.20;;;;;;933037;150;26323;-78
2023/07/18 10:57:18;;;;;;;1.67;1.57;;;38.80;24.40;;;;;;950590;147;26268;-77
2023/07/18 10:59:47;;;;;;;2.02;1.30;;;38.60;24.50;;;;;;949689;147;27691;-77
2023/07/18 11:02:13;;;;;;;4.78;1.90;;;38.30;24.70;;;;;;932084;149;27738;-77
2023/07/18 11:04:40;;;;;;;2.98;1.90;;;38.20;24.60;;;;;;945762;149;26287;-77
2023/07/18 11:07:09;;;;;;;2.65;1.57;;;38.00;24.80;;;;;;945679;149;26288;-77
2023/07/18 11:09:33;;;;;;;1.70;1.60;;;37.80;25.00;;;;;;945198;148;27314;-77
2023/07/18 11:12:00;;;;;;;3.02;1.57;;;37.60;25.00;;;;;;945364;149;26174;-77
2023/07/18 11:14:28;;;;;;;1.72;1.62;;;37.40;25.10;;;;;;945941;149;27362;-78
2023/07/18 11:16:53;;;;;;;1.92;1.82;;;37.20;25.10;;;;;;943591;149;27366;-78
2023/07/18 11:19:20;;;;;;;1.65;1.47;;;37.00;25.20;;;;;;945415;149;27473;-78
2023/07/18 11:21:47;;;;;;;1.65;1.55;;;36.70;25.20;;;;;;945621;149;27843;-77
2023/07/18 11:24:13;;;;;;;3.50;1.75;;;36.50;25.30;;;;;;946113;149;27343;-77
2023/07/18 11:26:39;;;;;;;2.08;1.75;;;36.20;25.50;;;;;;945669;149;27325;-77
2023/07/18 11:29:07;;;;;;;2.47;1.75;;;36.00;25.80;;;;;;946048;149;27358;-77
2023/07/18 11:31:33;;;;;;;1.80;1.70;;;35.80;25.80;;;;;;946211;149;27366;-77
2023/07/18 11:33:59;;;;;;;3.55;1.57;;;35.50;25.90;;;;;;943862;149;27350;-77
2023/07/18 11:36:29;;;;;;;1.45;1.27;;;35.30;26.00;;;;;;944833;149;27449;-77
2023/07/18 11:38:58;;;;;;;1.70;1.52;;;35.10;26.20;;;;;;945075;149;27440;-77
2023/07/18 11:41:34;;;;;;;1.90;1.80;;;34.90;26.30;;;;;;944948;149;27469;-77
2023/07/18 11:44:03;;;;;;;3.75;1.50;;;34.60;26.50;;;;;;944948;149;27451;-77
2023/07/18 11:46:38;;;;;;;2.35;1.37;;;34.50;26.60;;;;;;944165;149;27263;-77
2023/07/18 11:49:07;;;;;;;1.92;1.72;;;34.40;26.80;;;;;;944997;149;27474;-77
2023/07/18 11:51:34;;;;;;;1.70;1.60;;;34.20;26.90;;;;;;944591;149;27286;-77
2023/07/18 11:54:01;;;;;;;1.70;1.50;;;34.20;27.20;;;;;;945334;149;27431;-78
2023/07/18 11:56:27;;;;;;;2.17;1.80;;;34.10;27.30;;;;;;944663;149;27500;-77
2023/07/18 11:58:54;;;;;;;3.58;1.75;;;34.20;27.40;;;;;;945122;149;27350;-77
2023/07/18 12:01:20;;;;;;;1.80;1.60;;;34.10;27.50;;;;;;944470;149;27377;-77
2023/07/18 12:03:47;;;;;;;1.75;1.50;;;34.10;27.50;;;;;;945890;149;27353;-78
2023/07/18 12:06:13;;;;;;;1.65;1.55;;;34.10;27.50;;;;;;959147;145;27493;-77
2023/07/18 12:08:40;;;;;;;1.52;1.40;;;34.10;27.50;;;;;;962628;146;27351;-77
2023/07/18 12:11:09;;;;;;;1.50;1.35;;;34.10;27.50;;;;;;944718;148;27407;-77
2023/07/18 12:13:35;;;;;;;1.95;1.55;;;34.00;27.40;;;;;;945976;148;27329;-77
2023/07/18 12:16:00;;;;;;;2.27;1.62;;;34.00;27.40;;;;;;965836;145;27384;-77
2023/07/18 12:18:27;;;;;;;2.17;1.90;;;34.00;27.50;;;;;;962762;146;27428;-77
2023/07/18 12:20:53;;;;;;;1.62;1.52;;;33.90;27.50;;;;;;962959;146;27328;-77
2023/07/18 12:23:20;;;;;;;1.67;1.57;;;33.90;27.50;;;;;;947870;148;27342;-77
2023/07/18 12:25:47;;;;;;;2.00;1.65;;;33.90;27.70;;;;;;945006;148;27442;-77
2023/07/18 12:28:13;;;;;;;2.02;1.67;;;33.80;27.60;;;;;;952898;147;27324;-76
2023/07/18 12:30:39;;;;;;;2.40;1.50;;;33.70;27.60;;;;;;962429;146;27343;-77
2023/07/18 12:33:06;;;;;;;1.52;1.42;;;33.60;27.60;;;;;;962774;146;27293;-77
2023/07/18 12:35:33;;;;;;;3.00;1.50;;;33.60;27.90;;;;;;947175;148;27371;-77
2023/07/18 12:37:59;;;;;;;2.15;1.85;;;33.50;27.90;;;;;;946210;148;27334;-77
2023/07/18 12:40:26;;;;;;;4.67;1.65;;;33.50;27.90;;;;;;963068;146;27782;-77
2023/07/18 12:42:53;;;;;;;2.12;1.85;;;33.40;27.90;;;;;;944081;148;27349;-77
2023/07/18 12:45:19;;;;;;;2.40;1.75;;;33.40;28.00;;;;;;946005;148;27356;-77